• Join FlightAware (Why Join?)
  • Login
  • US Flag 
01:55PM EDT


 

Airport Tracker/Info


-or-


 

Live Flight TrackerFlight Track Log ✈ N447SC ✈ 10-Jul-2013 ✈ KCPS - KBMI

Flight Track Log - Related Links

Times and Time Zones

All times are in EDT time to prevent confusion due to time zone crossing. See the N447SC flight status page for this flight to view local times or setup timezone preferences in your user account.

Time Position Orientation Groundspeed Altitude Reporting Facility
EDT Latitude Longitude Course Direction KTS MPH feet Rate Location/Type
12:25AM 38.5833 -90.1833 26° Northeast 116 133 1,600  Level Gateway (St. Louis) TRACON
12:26AM 38.5500 -90.2000 201° Southwest 123 142 2,500 840 Climbing Gateway (St. Louis) TRACON
12:27AM 38.5333 -90.1667 123° Southeast 108 124 3,300 840 Climbing Gateway (St. Louis) TRACON
12:28AM 38.5333 -90.1333 90° East 106 122 4,200 900 Climbing Gateway (St. Louis) TRACON
12:29AM 38.5500 -90.1167 38° Northeast 98 113 5,100 840 Climbing Gateway (St. Louis) TRACON
12:30AM 38.5667 -90.1000 38° Northeast 96 110 5,800 840 Climbing Gateway (St. Louis) TRACON
12:31AM 38.8162 -89.9897 26° Northeast  Level FlightAware Approximate
12:31AM 38.6000 -90.0833 21° North 99 114 6,800  Level Gateway (St. Louis) TRACON
12:32AM 38.6167 -90.0667 38° Northeast 117 135 7,200 120 Climbing Gateway (St. Louis) TRACON
12:33AM 38.6667 -90.0333 27° Northeast 154 177 7,100  Descending Gateway (St. Louis) TRACON
12:34AM 38.7000 -90.0167 21° North 164 189 7,200  Climbing Gateway (St. Louis) TRACON
12:35AM 38.7333 -90.0000 21° North 172 198 7,200 -60 Level Gateway (St. Louis) TRACON
12:36AM 38.7833 -89.9667 27° Northeast 172 198 7,100  Descending Gateway (St. Louis) TRACON
12:37AM 38.8333 -89.9333 27° Northeast 172 198 7,200  Climbing Gateway (St. Louis) TRACON
12:38AM 38.8667 -89.9167 21° North 167 192 7,200 -60 Level Gateway (St. Louis) TRACON
12:39AM 38.9167 -89.8833 27° Northeast 165 190 7,100  Descending Gateway (St. Louis) TRACON
12:40AM 38.9322 -89.8783 14° North 166 191 7,200  Climbing Kansas City Center
12:41AM 38.9725 -89.8519 27° Northeast 163 188 7,100 -60 Descending Kansas City Center
12:42AM 39.0142 -89.8294 23° Northeast 162 186 7,100 -60 Level Kansas City Center
12:43AM 39.0589 -89.7994 28° Northeast 167 192 7,000 -60 Descending Kansas City Center
12:44AM 39.1017 -89.7789 20° North 164 189 7,000  Level Kansas City Center
12:45AM 39.1422 -89.7525 27° Northeast 163 188 7,000  Level Kansas City Center
12:46AM 39.1817 -89.7278 26° Northeast 163 188 7,000  Level Kansas City Center
12:47AM 39.2228 -89.7039 24° Northeast 163 188 7,000  Level Kansas City Center
12:48AM 39.2625 -89.6742 30° Northeast 165 190 7,000  Level Kansas City Center
12:49AM 39.3053 -89.6500 24° Northeast 167 192 7,000  Level Kansas City Center
12:50AM 39.3467 -89.6267 24° Northeast 164 189 7,000  Level Kansas City Center
12:51AM 39.3875 -89.5986 28° Northeast 166 191 7,000  Level Kansas City Center
12:52AM 39.4300 -89.5769 21° North 164 189 7,000  Level Kansas City Center
12:53AM 39.4706 -89.5483 29° Northeast 166 191 7,000  Level Kansas City Center
12:54AM 39.5119 -89.5239 24° Northeast 165 190 7,000  Level Kansas City Center
12:55AM 39.5533 -89.4981 26° Northeast 164 189 7,000  Level Kansas City Center
12:56AM 39.5925 -89.4686 30° Northeast 164 189 7,000  Level Kansas City Center
12:57AM 39.6347 -89.4472 21° North 163 188 7,000  Level Kansas City Center
12:58AM 39.6831 -89.4175 25° Northeast 161 185 7,000  Level Kansas City Center
12:59AM 39.7200 -89.3947 25° Northeast 163 188 7,000  Level Kansas City Center
01:00AM 39.7522 -89.3733 27° Northeast 163 188 7,000  Level Kansas City Center
01:01AM 39.8003 -89.3381 29° Northeast 164 189 7,000  Level Kansas City Center
01:02AM 39.8425 -89.3142 23° Northeast 166 191 7,100  Climbing Kansas City Center
01:03AM 39.8847 -89.2858 27° Northeast 170 196 7,000 -60 Descending Kansas City Center
01:04AM 39.9194 -89.2433 43° Northeast 180 207 7,000  Level Kansas City Center
01:05AM 39.9469 -89.1900 56° Northeast 179 206 7,000  Level Kansas City Center
01:06AM 39.9744 -89.1367 56° Northeast 178 205 7,000 -120 Level Kansas City Center
01:07AM 40.0206 -89.0986 32° Northeast 170 196 6,800 -480 Descending Chicago Center
01:08AM 40.0681 -89.0833 14° North 174 200 6,100 -720 Descending Chicago Center
01:09AM 40.1139 -89.0650 17° North 173 199 5,400 -840 Descending Chicago Center
01:10AM 40.1586 -89.0450 19° North 171 197 4,500 -900 Descending Chicago Center
01:11AM 40.2028 -89.0278 17° North 168 193 3,600 -840 Descending Chicago Center
01:12AM 40.2436 -89.0081 20° North 160 184 2,900 -300 Descending Chicago Center
01:13AM 40.2806 -88.9933 17° North 146 168 3,000  Climbing Chicago Center
01:14AM 40.3200 -88.9769 18° North 145 167 2,900 -300 Descending Chicago Center
01:15AM 40.3611 -88.9594 18° North 152 175 2,500 -300 Descending Chicago Center
01:16AM 40.3989 -88.9425 19° North 149 171 2,300 -480 Descending Chicago Center
01:17AM 40.4308 -88.9300 17° North 138 159 1,600 -600 Descending Chicago Center
01:18AM 40.4594 -88.9183 17° North 123 142 1,200 -420 Descending Chicago Center